sensor_id;sensor_type;location;lat;lon;timestamp;temperature;humidity
38221;DHT22;24023;51.280;7.148;2024-01-27T00:00:21;3.9;99.9
38221;DHT22;24023;51.280;7.148;2024-01-27T00:05:12;3.9;99.9
38221;DHT22;24023;51.280;7.148;2024-01-27T00:10:15;3.8;99.9
38221;DHT22;24023;51.280;7.148;2024-01-27T00:15:13;3.8;99.9
38221;DHT22;24023;51.280;7.148;2024-01-27T00:20:14;3.8;99.9
38221;DHT22;24023;51.280;7.148;2024-01-27T00:25:11;3.9;99.9
38221;DHT22;24023;51.280;7.148;2024-01-27T00:30:16;3.9;99.9
38221;DHT22;24023;51.280;7.148;2024-01-27T00:35:11;2.8;99.9
38221;DHT22;24023;51.280;7.148;2024-01-27T00:40:14;2.8;99.9
38221;DHT22;24023;51.280;7.148;2024-01-27T00:45:16;3.1;99.9
38221;DHT22;24023;51.280;7.148;2024-01-27T00:50:14;3.1;99.9
38221;DHT22;24023;51.280;7.148;2024-01-27T00:55:12;3.1;99.9
38221;DHT22;24023;51.280;7.148;2024-01-27T01:00:22;2.8;99.9
38221;DHT22;24023;51.280;7.148;2024-01-27T01:05:11;2.8;99.9
38221;DHT22;24023;51.280;7.148;2024-01-27T01:10:14;2.5;99.9
38221;DHT22;24023;51.280;7.148;2024-01-27T01:15:13;2.5;99.9
38221;DHT22;24023;51.280;7.148;2024-01-27T01:20:14;2.5;99.9
38221;DHT22;24023;51.280;7.148;2024-01-27T01:25:12;2.2;99.9
38221;DHT22;24023;51.280;7.148;2024-01-27T01:30:16;2.2;99.9
38221;DHT22;24023;51.280;7.148;2024-01-27T01:35:12;2.1;99.9
38221;DHT22;24023;51.280;7.148;2024-01-27T01:40:14;2.1;99.9
38221;DHT22;24023;51.280;7.148;2024-01-27T01:45:16;2.1;99.9
38221;DHT22;24023;51.280;7.148;2024-01-27T01:50:14;2.2;99.9
38221;DHT22;24023;51.280;7.148;2024-01-27T01:55:11;2.2;99.9
38221;DHT22;24023;51.280;7.148;2024-01-27T02:00:21;2.4;99.9
38221;DHT22;24023;51.280;7.148;2024-01-27T02:05:12;2.4;99.9
38221;DHT22;24023;51.280;7.148;2024-01-27T02:10:15;2.4;99.9
38221;DHT22;24023;51.280;7.148;2024-01-27T02:15:14;2.4;99.9
38221;DHT22;24023;51.280;7.148;2024-01-27T02:20:14;2.4;99.9
38221;DHT22;24023;51.280;7.148;2024-01-27T02:25:11;2.3;99.9
38221;DHT22;24023;51.280;7.148;2024-01-27T02:30:15;2.3;99.9
38221;DHT22;24023;51.280;7.148;2024-01-27T02:35:11;2.1;99.9
38221;DHT22;24023;51.280;7.148;2024-01-27T02:40:14;2.2;99.9
38221;DHT22;24023;51.280;7.148;2024-01-27T02:45:16;2.2;99.9
38221;DHT22;24023;51.280;7.148;2024-01-27T02:50:14;2.2;99.9
38221;DHT22;24023;51.280;7.148;2024-01-27T02:55:12;2.0;99.9
38221;DHT22;24023;51.280;7.148;2024-01-27T03:00:21;1.9;99.9
38221;DHT22;24023;51.280;7.148;2024-01-27T03:05:11;1.9;99.9
38221;DHT22;24023;51.280;7.148;2024-01-27T03:10:14;2.1;99.9
38221;DHT22;24023;51.280;7.148;2024-01-27T03:15:13;2.1;99.9
38221;DHT22;24023;51.280;7.148;2024-01-27T03:20:14;1.8;99.9
38221;DHT22;24023;51.280;7.148;2024-01-27T03:25:12;1.8;99.9
38221;DHT22;24023;51.280;7.148;2024-01-27T03:30:16;2.0;99.9
38221;DHT22;24023;51.280;7.148;2024-01-27T03:35:11;2.0;99.9
38221;DHT22;24023;51.280;7.148;2024-01-27T03:40:14;1.8;99.9
38221;DHT22;24023;51.280;7.148;2024-01-27T03:45:16;1.8;99.9
38221;DHT22;24023;51.280;7.148;2024-01-27T03:50:14;2.0;99.9
38221;DHT22;24023;51.280;7.148;2024-01-27T03:55:11;2.0;99.9
38221;DHT22;24023;51.280;7.148;2024-01-27T04:00:22;2.0;99.9
38221;DHT22;24023;51.280;7.148;2024-01-27T04:05:11;1.9;99.9
38221;DHT22;24023;51.280;7.148;2024-01-27T04:10:14;1.7;99.9
38221;DHT22;24023;51.280;7.148;2024-01-27T04:15:13;1.7;99.9
38221;DHT22;24023;51.280;7.148;2024-01-27T04:20:14;1.7;99.9
38221;DHT22;24023;51.280;7.148;2024-01-27T04:25:12;1.6;99.9
38221;DHT22;24023;51.280;7.148;2024-01-27T04:30:16;1.6;99.9
38221;DHT22;24023;51.280;7.148;2024-01-27T04:35:12;1.9;99.9
38221;DHT22;24023;51.280;7.148;2024-01-27T04:40:14;1.9;99.9
38221;DHT22;24023;51.280;7.148;2024-01-27T04:45:16;1.9;99.9
38221;DHT22;24023;51.280;7.148;2024-01-27T04:50:14;2.6;99.9
38221;DHT22;24023;51.280;7.148;2024-01-27T04:55:11;2.6;99.9
38221;DHT22;24023;51.280;7.148;2024-01-27T05:00:21;2.3;99.9
38221;DHT22;24023;51.280;7.148;2024-01-27T05:05:12;2.3;99.9
38221;DHT22;24023;51.280;7.148;2024-01-27T05:10:14;2.3;99.9
38221;DHT22;24023;51.280;7.148;2024-01-27T05:15:13;2.5;99.9
38221;DHT22;24023;51.280;7.148;2024-01-27T05:20:28;2.5;99.9
38221;DHT22;24023;51.280;7.148;2024-01-27T05:25:12;2.7;99.9
38221;DHT22;24023;51.280;7.148;2024-01-27T05:30:16;2.7;99.9
38221;DHT22;24023;51.280;7.148;2024-01-27T05:35:11;2.7;99.9
38221;DHT22;24023;51.280;7.148;2024-01-27T05:40:14;2.6;99.9
38221;DHT22;24023;51.280;7.148;2024-01-27T05:45:17;2.6;99.9
38221;DHT22;24023;51.280;7.148;2024-01-27T05:50:14;2.5;99.9
38221;DHT22;24023;51.280;7.148;2024-01-27T05:55:12;2.5;99.9
38221;DHT22;24023;51.280;7.148;2024-01-27T06:00:21;2.6;99.9
38221;DHT22;24023;51.280;7.148;2024-01-27T06:05:11;2.6;99.9
38221;DHT22;24023;51.280;7.148;2024-01-27T06:10:14;2.6;99.9
38221;DHT22;24023;51.280;7.148;2024-01-27T06:15:13;2.6;99.9
38221;DHT22;24023;51.280;7.148;2024-01-27T06:20:14;2.6;99.9
38221;DHT22;24023;51.280;7.148;2024-01-27T06:25:12;2.7;99.9
38221;DHT22;24023;51.280;7.148;2024-01-27T06:30:15;2.7;99.9
38221;DHT22;24023;51.280;7.148;2024-01-27T06:35:12;2.7;99.9
38221;DHT22;24023;51.280;7.148;2024-01-27T06:40:15;2.6;99.9
38221;DHT22;24023;51.280;7.148;2024-01-27T06:45:16;2.6;99.9
38221;DHT22;24023;51.280;7.148;2024-01-27T06:50:15;2.3;99.9
38221;DHT22;24023;51.280;7.148;2024-01-27T06:55:12;2.3;99.9
38221;DHT22;24023;51.280;7.148;2024-01-27T07:00:22;2.3;99.9
38221;DHT22;24023;51.280;7.148;2024-01-27T07:05:11;2.0;99.9
38221;DHT22;24023;51.280;7.148;2024-01-27T07:10:15;2.0;99.9
38221;DHT22;24023;51.280;7.148;2024-01-27T07:15:13;1.9;99.9
38221;DHT22;24023;51.280;7.148;2024-01-27T07:20:14;1.9;99.9
38221;DHT22;24023;51.280;7.148;2024-01-27T07:25:12;1.9;99.9
38221;DHT22;24023;51.280;7.148;2024-01-27T07:30:16;1.9;99.9
38221;DHT22;24023;51.280;7.148;2024-01-27T07:35:11;1.9;99.9
38221;DHT22;24023;51.280;7.148;2024-01-27T07:40:14;2.0;99.9
38221;DHT22;24023;51.280;7.148;2024-01-27T07:45:17;2.0;99.9
38221;DHT22;24023;51.280;7.148;2024-01-27T07:50:14;2.1;99.9
38221;DHT22;24023;51.280;7.148;2024-01-27T07:55:12;2.1;99.9
38221;DHT22;24023;51.280;7.148;2024-01-27T08:00:21;2.1;99.9
38221;DHT22;24023;51.280;7.148;2024-01-27T08:05:12;2.5;99.9
38221;DHT22;24023;51.280;7.148;2024-01-27T08:10:14;2.5;99.9
38221;DHT22;24023;51.280;7.148;2024-01-27T08:15:13;2.8;99.9
38221;DHT22;24023;51.280;7.148;2024-01-27T08:20:15;2.8;99.9
38221;DHT22;24023;51.280;7.148;2024-01-27T08:25:12;2.8;99.9
38221;DHT22;24023;51.280;7.148;2024-01-27T08:30:16;3.5;99.9
38221;DHT22;24023;51.280;7.148;2024-01-27T08:35:11;3.5;99.9
38221;DHT22;24023;51.280;7.148;2024-01-27T08:40:15;4.3;99.9
38221;DHT22;24023;51.280;7.148;2024-01-27T08:45:16;4.3;99.9
38221;DHT22;24023;51.280;7.148;2024-01-27T08:50:15;4.7;99.9
38221;DHT22;24023;51.280;7.148;2024-01-27T08:55:11;4.7;99.9
38221;DHT22;24023;51.280;7.148;2024-01-27T09:00:22;4.7;99.9
38221;DHT22;24023;51.280;7.148;2024-01-27T09:05:11;4.8;99.9
38221;DHT22;24023;51.280;7.148;2024-01-27T09:10:15;5.1;99.9
38221;DHT22;24023;51.280;7.148;2024-01-27T09:15:13;5.1;99.9
38221;DHT22;24023;51.280;7.148;2024-01-27T09:20:15;5.2;99.9
38221;DHT22;24023;51.280;7.148;2024-01-27T09:25:12;5.2;99.9
38221;DHT22;24023;51.280;7.148;2024-01-27T09:30:16;5.2;99.9
38221;DHT22;24023;51.280;7.148;2024-01-27T09:35:12;5.5;99.9
38221;DHT22;24023;51.280;7.148;2024-01-27T09:40:15;5.5;99.9
38221;DHT22;24023;51.280;7.148;2024-01-27T09:45:16;5.8;99.9
38221;DHT22;24023;51.280;7.148;2024-01-27T09:50:14;5.8;99.9
38221;DHT22;24023;51.280;7.148;2024-01-27T09:55:12;5.8;99.9
38221;DHT22;24023;51.280;7.148;2024-01-27T10:00:21;6.0;99.9
38221;DHT22;24023;51.280;7.148;2024-01-27T10:05:11;6.0;99.9
38221;DHT22;24023;51.280;7.148;2024-01-27T10:10:13;6.3;99.9
38221;DHT22;24023;51.280;7.148;2024-01-27T10:15:26;6.3;99.9
38221;DHT22;24023;51.280;7.148;2024-01-27T10:20:14;6.6;99.9
38221;DHT22;24023;51.280;7.148;2024-01-27T10:25:12;6.6;99.9
38221;DHT22;24023;51.280;7.148;2024-01-27T10:30:16;6.9;99.9
38221;DHT22;24023;51.280;7.148;2024-01-27T10:35:16;6.9;99.9
38221;DHT22;24023;51.280;7.148;2024-01-27T10:40:15;6.9;99.9
38221;DHT22;24023;51.280;7.148;2024-01-27T10:45:15;7.0;99.9
38221;DHT22;24023;51.280;7.148;2024-01-27T10:50:13;6.8;99.9
38221;DHT22;24023;51.280;7.148;2024-01-27T10:55:11;6.8;99.9
38221;DHT22;24023;51.280;7.148;2024-01-27T11:00:20;6.8;99.9
38221;DHT22;24023;51.280;7.148;2024-01-27T11:05:11;7.2;99.9
38221;DHT22;24023;51.280;7.148;2024-01-27T11:10:14;7.2;99.9
38221;DHT22;24023;51.280;7.148;2024-01-27T11:15:13;7.3;99.9
38221;DHT22;24023;51.280;7.148;2024-01-27T11:20:15;7.3;99.9
38221;DHT22;24023;51.280;7.148;2024-01-27T11:25:15;7.8;99.9
38221;DHT22;24023;51.280;7.148;2024-01-27T11:30:31;7.8;99.9
38221;DHT22;24023;51.280;7.148;2024-01-27T11:35:10;7.8;99.9
38221;DHT22;24023;51.280;7.148;2024-01-27T11:40:14;8.0;99.9
38221;DHT22;24023;51.280;7.148;2024-01-27T11:45:15;8.0;99.9
38221;DHT22;24023;51.280;7.148;2024-01-27T11:50:13;8.0;99.9
38221;DHT22;24023;51.280;7.148;2024-01-27T11:55:11;8.3;99.9
38221;DHT22;24023;51.280;7.148;2024-01-27T12:00:20;8.7;99.9
38221;DHT22;24023;51.280;7.148;2024-01-27T12:05:11;8.7;99.9
38221;DHT22;24023;51.280;7.148;2024-01-27T12:10:14;8.7;99.9
38221;DHT22;24023;51.280;7.148;2024-01-27T12:15:12;9.2;99.9
38221;DHT22;24023;51.280;7.148;2024-01-27T12:20:15;9.4;99.9
38221;DHT22;24023;51.280;7.148;2024-01-27T12:25:11;9.4;99.9
38221;DHT22;24023;51.280;7.148;2024-01-27T12:30:15;9.4;99.9
38221;DHT22;24023;51.280;7.148;2024-01-27T12:35:11;9.4;99.8
38221;DHT22;24023;51.280;7.148;2024-01-27T12:40:17;9.4;99.8
38221;DHT22;24023;51.280;7.148;2024-01-27T12:45:15;9.8;99.1
38221;DHT22;24023;51.280;7.148;2024-01-27T12:50:13;9.8;99.1
38221;DHT22;24023;51.280;7.148;2024-01-27T12:55:11;10.1;96.7
38221;DHT22;24023;51.280;7.148;2024-01-27T13:00:20;10.1;96.7
38221;DHT22;24023;51.280;7.148;2024-01-27T13:05:11;10.1;96.7
38221;DHT22;24023;51.280;7.148;2024-01-27T13:10:14;10.6;96.3
38221;DHT22;24023;51.280;7.148;2024-01-27T13:15:13;11.3;93.8
38221;DHT22;24023;51.280;7.148;2024-01-27T13:20:14;11.9;91.7
38221;DHT22;24023;51.280;7.148;2024-01-27T13:25:11;11.9;91.7
38221;DHT22;24023;51.280;7.148;2024-01-27T13:30:15;11.6;91.9
38221;DHT22;24023;51.280;7.148;2024-01-27T13:35:10;11.6;91.9
38221;DHT22;24023;51.280;7.148;2024-01-27T13:40:13;12.3;89.3
38221;DHT22;24023;51.280;7.148;2024-01-27T13:45:15;12.3;89.3
38221;DHT22;24023;51.280;7.148;2024-01-27T13:50:14;12.3;89.3
38221;DHT22;24023;51.280;7.148;2024-01-27T13:55:11;11.9;89.0
38221;DHT22;24023;51.280;7.148;2024-01-27T14:00:20;11.9;90.6
38221;DHT22;24023;51.280;7.148;2024-01-27T14:05:11;12.3;87.5
38221;DHT22;24023;51.280;7.148;2024-01-27T14:10:13;12.5;85.3
38221;DHT22;24023;51.280;7.148;2024-01-27T14:15:12;11.4;87.5
38221;DHT22;24023;51.280;7.148;2024-01-27T14:20:13;11.4;88.8
38221;DHT22;24023;51.280;7.148;2024-01-27T14:25:10;11.4;88.8
38221;DHT22;24023;51.280;7.148;2024-01-27T14:30:16;10.4;90.9
38221;DHT22;24023;51.280;7.148;2024-01-27T14:35:11;10.4;90.9
38221;DHT22;24023;51.280;7.148;2024-01-27T14:40:13;9.8;93.3
38221;DHT22;24023;51.280;7.148;2024-01-27T14:45:15;9.8;93.3
38221;DHT22;24023;51.280;7.148;2024-01-27T14:50:13;9.4;92.2
38221;DHT22;24023;51.280;7.148;2024-01-27T14:55:12;9.4;92.2
38221;DHT22;24023;51.280;7.148;2024-01-27T15:00:21;8.8;94.4
38221;DHT22;24023;51.280;7.148;2024-01-27T15:05:11;8.8;94.4
38221;DHT22;24023;51.280;7.148;2024-01-27T15:10:14;8.8;94.8
38221;DHT22;24023;51.280;7.148;2024-01-27T15:15:12;8.8;94.5
38221;DHT22;24023;51.280;7.148;2024-01-27T15:20:14;8.6;97.2
38221;DHT22;24023;51.280;7.148;2024-01-27T15:25:10;8.6;97.2
38221;DHT22;24023;51.280;7.148;2024-01-27T15:30:15;8.3;97.5
38221;DHT22;24023;51.280;7.148;2024-01-27T15:35:10;7.7;99.9
38221;DHT22;24023;51.280;7.148;2024-01-27T15:40:13;7.6;99.9
38221;DHT22;24023;51.280;7.148;2024-01-27T15:45:14;7.6;99.9
38221;DHT22;24023;51.280;7.148;2024-01-27T15:50:14;7.6;99.9
38221;DHT22;24023;51.280;7.148;2024-01-27T15:55:11;7.1;99.9
38221;DHT22;24023;51.280;7.148;2024-01-27T16:00:20;7.1;99.9
38221;DHT22;24023;51.280;7.148;2024-01-27T16:05:11;6.3;99.9
38221;DHT22;24023;51.280;7.148;2024-01-27T16:10:13;6.3;99.9
38221;DHT22;24023;51.280;7.148;2024-01-27T16:15:12;5.8;99.9
38221;DHT22;24023;51.280;7.148;2024-01-27T16:20:13;5.8;99.9
38221;DHT22;24023;51.280;7.148;2024-01-27T16:25:10;5.8;99.9
38221;DHT22;24023;51.280;7.148;2024-01-27T16:30:15;6.3;99.9
38221;DHT22;24023;51.280;7.148;2024-01-27T16:35:11;6.3;99.9
38221;DHT22;24023;51.280;7.148;2024-01-27T16:40:13;5.4;99.9
38221;DHT22;24023;51.280;7.148;2024-01-27T16:45:15;5.4;99.9
38221;DHT22;24023;51.280;7.148;2024-01-27T16:50:13;5.4;99.9
38221;DHT22;24023;51.280;7.148;2024-01-27T16:55:10;4.4;99.9
38221;DHT22;24023;51.280;7.148;2024-01-27T17:00:20;4.4;99.9
38221;DHT22;24023;51.280;7.148;2024-01-27T17:05:10;4.6;99.9
38221;DHT22;24023;51.280;7.148;2024-01-27T17:10:13;4.6;99.9
38221;DHT22;24023;51.280;7.148;2024-01-27T17:15:14;4.5;99.9
38221;DHT22;24023;51.280;7.148;2024-01-27T17:20:13;4.5;99.9
38221;DHT22;24023;51.280;7.148;2024-01-27T17:25:11;4.5;99.9
38221;DHT22;24023;51.280;7.148;2024-01-27T17:30:15;4.2;99.9
38221;DHT22;24023;51.280;7.148;2024-01-27T17:35:11;4.2;99.9
38221;DHT22;24023;51.280;7.148;2024-01-27T17:40:14;4.2;99.9
38221;DHT22;24023;51.280;7.148;2024-01-27T17:45:15;4.2;99.9
38221;DHT22;24023;51.280;7.148;2024-01-27T17:50:14;4.0;99.9
38221;DHT22;24023;51.280;7.148;2024-01-27T17:55:12;4.0;99.9
38221;DHT22;24023;51.280;7.148;2024-01-27T18:00:21;4.0;99.9
38221;DHT22;24023;51.280;7.148;2024-01-27T18:05:11;3.7;99.9
38221;DHT22;24023;51.280;7.148;2024-01-27T18:10:13;4.7;99.9
38221;DHT22;24023;51.280;7.148;2024-01-27T18:15:12;4.7;99.9
38221;DHT22;24023;51.280;7.148;2024-01-27T18:20:13;4.7;99.9
38221;DHT22;24023;51.280;7.148;2024-01-27T18:25:10;4.7;99.9
38221;DHT22;24023;51.280;7.148;2024-01-27T18:30:15;4.7;99.9
38221;DHT22;24023;51.280;7.148;2024-01-27T18:35:11;4.3;99.9
38221;DHT22;24023;51.280;7.148;2024-01-27T18:40:13;4.3;99.9
38221;DHT22;24023;51.280;7.148;2024-01-27T18:45:14;3.3;99.9
38221;DHT22;24023;51.280;7.148;2024-01-27T18:50:13;3.3;99.9
38221;DHT22;24023;51.280;7.148;2024-01-27T18:55:10;3.3;99.9
38221;DHT22;24023;51.280;7.148;2024-01-27T19:00:21;3.5;99.9
38221;DHT22;24023;51.280;7.148;2024-01-27T19:05:10;3.5;99.9
38221;DHT22;24023;51.280;7.148;2024-01-27T19:10:13;3.6;99.9
38221;DHT22;24023;51.280;7.148;2024-01-27T19:15:12;3.6;99.9
38221;DHT22;24023;51.280;7.148;2024-01-27T19:20:14;3.6;99.9
38221;DHT22;24023;51.280;7.148;2024-01-27T19:25:10;4.4;99.9
38221;DHT22;24023;51.280;7.148;2024-01-27T19:30:15;4.4;99.9
38221;DHT22;24023;51.280;7.148;2024-01-27T19:35:11;5.5;99.9
38221;DHT22;24023;51.280;7.148;2024-01-27T19:40:13;5.8;99.9
38221;DHT22;24023;51.280;7.148;2024-01-27T19:45:15;5.8;99.9
38221;DHT22;24023;51.280;7.148;2024-01-27T19:50:14;5.8;99.9
38221;DHT22;24023;51.280;7.148;2024-01-27T19:55:11;4.7;99.9
38221;DHT22;24023;51.280;7.148;2024-01-27T20:00:23;4.3;99.9
38221;DHT22;24023;51.280;7.148;2024-01-27T20:05:10;4.3;99.9
38221;DHT22;24023;51.280;7.148;2024-01-27T20:10:13;4.3;99.9
38221;DHT22;24023;51.280;7.148;2024-01-27T20:15:12;5.2;99.9
38221;DHT22;24023;51.280;7.148;2024-01-27T20:20:13;6.1;99.9
38221;DHT22;24023;51.280;7.148;2024-01-27T20:25:10;6.1;99.9
38221;DHT22;24023;51.280;7.148;2024-01-27T20:30:15;5.5;99.9
38221;DHT22;24023;51.280;7.148;2024-01-27T20:35:12;5.5;99.9
38221;DHT22;24023;51.280;7.148;2024-01-27T20:40:13;5.9;99.9
38221;DHT22;24023;51.280;7.148;2024-01-27T20:45:14;5.9;99.9
38221;DHT22;24023;51.280;7.148;2024-01-27T20:50:13;5.7;99.9
38221;DHT22;24023;51.280;7.148;2024-01-27T20:55:11;5.7;99.9
38221;DHT22;24023;51.280;7.148;2024-01-27T21:00:19;5.8;99.9
38221;DHT22;24023;51.280;7.148;2024-01-27T21:05:10;5.8;99.9
38221;DHT22;24023;51.280;7.148;2024-01-27T21:10:13;5.7;99.9
38221;DHT22;24023;51.280;7.148;2024-01-27T21:15:13;5.7;99.9
38221;DHT22;24023;51.280;7.148;2024-01-27T21:20:14;5.7;99.9
38221;DHT22;24023;51.280;7.148;2024-01-27T21:25:10;5.8;99.9
38221;DHT22;24023;51.280;7.148;2024-01-27T21:30:15;5.8;99.9
38221;DHT22;24023;51.280;7.148;2024-01-27T21:35:11;6.1;99.9
38221;DHT22;24023;51.280;7.148;2024-01-27T21:40:13;6.1;99.9
38221;DHT22;24023;51.280;7.148;2024-01-27T21:45:15;5.9;99.9
38221;DHT22;24023;51.280;7.148;2024-01-27T21:50:14;5.9;99.9
38221;DHT22;24023;51.280;7.148;2024-01-27T21:55:11;5.9;99.9
38221;DHT22;24023;51.280;7.148;2024-01-27T22:00:20;5.9;99.9
38221;DHT22;24023;51.280;7.148;2024-01-27T22:05:11;5.9;99.9
38221;DHT22;24023;51.280;7.148;2024-01-27T22:10:13;6.0;99.9
38221;DHT22;24023;51.280;7.148;2024-01-27T22:15:12;6.0;99.9
38221;DHT22;24023;51.280;7.148;2024-01-27T22:20:14;6.0;99.9
38221;DHT22;24023;51.280;7.148;2024-01-27T22:25:11;5.8;99.9
38221;DHT22;24023;51.280;7.148;2024-01-27T22:30:15;5.8;99.9
38221;DHT22;24023;51.280;7.148;2024-01-27T22:35:10;5.5;99.9
38221;DHT22;24023;51.280;7.148;2024-01-27T22:40:13;5.4;99.9
38221;DHT22;24023;51.280;7.148;2024-01-27T22:45:15;5.4;99.9
38221;DHT22;24023;51.280;7.148;2024-01-27T22:50:16;5.4;99.9
38221;DHT22;24023;51.280;7.148;2024-01-27T22:55:11;5.5;99.9
38221;DHT22;24023;51.280;7.148;2024-01-27T23:00:34;5.4;99.9
38221;DHT22;24023;51.280;7.148;2024-01-27T23:05:13;5.4;99.9
38221;DHT22;24023;51.280;7.148;2024-01-27T23:10:14;5.5;99.9
38221;DHT22;24023;51.280;7.148;2024-01-27T23:15:13;5.5;99.9
38221;DHT22;24023;51.280;7.148;2024-01-27T23:20:13;5.5;99.9
38221;DHT22;24023;51.280;7.148;2024-01-27T23:25:11;5.5;99.9
38221;DHT22;24023;51.280;7.148;2024-01-27T23:30:15;5.8;98.5
38221;DHT22;24023;51.280;7.148;2024-01-27T23:35:10;5.8;98.5
38221;DHT22;24023;51.280;7.148;2024-01-27T23:40:13;5.8;98.5
38221;DHT22;24023;51.280;7.148;2024-01-27T23:45:16;5.7;98.1
38221;DHT22;24023;51.280;7.148;2024-01-27T23:50:13;5.7;98.1
38221;DHT22;24023;51.280;7.148;2024-01-27T23:55:10;5.5;97.6
